sensor_id;sensor_type;location;lat;lon;timestamp;P1;durP1;ratioP1;P2;durP2;ratioP2
36225;SDS011;22268;52.010;4.716;2022-09-09T00:00:14;11.73;;;6.20;;
36225;SDS011;22268;52.010;4.716;2022-09-09T00:03:02;11.13;;;6.43;;
36225;SDS011;22268;52.010;4.716;2022-09-09T00:05:35;10.07;;;6.20;;
36225;SDS011;22268;52.010;4.716;2022-09-09T00:08:03;9.57;;;6.32;;
36225;SDS011;22268;52.010;4.716;2022-09-09T00:10:32;8.90;;;6.75;;
36225;SDS011;22268;52.010;4.716;2022-09-09T00:16:06;15.20;;;7.75;;
36225;SDS011;22268;52.010;4.716;2022-09-09T00:18:31;13.98;;;8.93;;
36225;SDS011;22268;52.010;4.716;2022-09-09T00:21:17;11.82;;;8.07;;
36225;SDS011;22268;52.010;4.716;2022-09-09T00:23:47;12.37;;;8.82;;
36225;SDS011;22268;52.010;4.716;2022-09-09T00:26:20;16.00;;;9.07;;
36225;SDS011;22268;52.010;4.716;2022-09-09T00:28:52;15.20;;;9.32;;
36225;SDS011;22268;52.010;4.716;2022-09-09T00:31:23;18.60;;;9.13;;
36225;SDS011;22268;52.010;4.716;2022-09-09T00:33:50;13.52;;;8.60;;
36225;SDS011;22268;52.010;4.716;2022-09-09T00:36:17;15.15;;;9.10;;
36225;SDS011;22268;52.010;4.716;2022-09-09T00:38:47;15.65;;;10.38;;
36225;SDS011;22268;52.010;4.716;2022-09-09T00:41:18;12.70;;;8.98;;
36225;SDS011;22268;52.010;4.716;2022-09-09T00:43:49;13.43;;;9.75;;
36225;SDS011;22268;52.010;4.716;2022-09-09T00:51:25;16.55;;;11.20;;
36225;SDS011;22268;52.010;4.716;2022-09-09T00:56:20;14.27;;;11.30;;
36225;SDS011;22268;52.010;4.716;2022-09-09T01:01:41;14.77;;;10.93;;
36225;SDS011;22268;52.010;4.716;2022-09-09T01:04:09;13.00;;;10.32;;
36225;SDS011;22268;52.010;4.716;2022-09-09T01:06:37;13.35;;;11.15;;
36225;SDS011;22268;52.010;4.716;2022-09-09T01:11:47;18.90;;;12.82;;
36225;SDS011;22268;52.010;4.716;2022-09-09T01:16:39;14.48;;;12.02;;
36225;SDS011;22268;52.010;4.716;2022-09-09T01:19:06;16.80;;;12.25;;
36225;SDS011;22268;52.010;4.716;2022-09-09T01:21:37;19.52;;;12.70;;
36225;SDS011;22268;52.010;4.716;2022-09-09T01:24:08;18.70;;;11.60;;
36225;SDS011;22268;52.010;4.716;2022-09-09T01:26:39;16.55;;;12.05;;
36225;SDS011;22268;52.010;4.716;2022-09-09T01:29:07;16.87;;;11.10;;
36225;SDS011;22268;52.010;4.716;2022-09-09T01:31:51;18.48;;;12.00;;
36225;SDS011;22268;52.010;4.716;2022-09-09T01:34:17;14.68;;;11.57;;
36225;SDS011;22268;52.010;4.716;2022-09-09T01:37:04;16.95;;;11.40;;
36225;SDS011;22268;52.010;4.716;2022-09-09T01:39:29;16.37;;;12.57;;
36225;SDS011;22268;52.010;4.716;2022-09-09T01:41:54;16.55;;;11.15;;
36225;SDS011;22268;52.010;4.716;2022-09-09T01:44:20;17.15;;;10.52;;
36225;SDS011;22268;52.010;4.716;2022-09-09T01:46:46;15.43;;;9.85;;
36225;SDS011;22268;52.010;4.716;2022-09-09T01:49:11;22.90;;;11.23;;
36225;SDS011;22268;52.010;4.716;2022-09-09T01:51:37;20.02;;;12.18;;
36225;SDS011;22268;52.010;4.716;2022-09-09T01:54:03;19.58;;;11.38;;
36225;SDS011;22268;52.010;4.716;2022-09-09T01:58:57;18.98;;;11.23;;
36225;SDS011;22268;52.010;4.716;2022-09-09T02:03:56;13.82;;;11.05;;
36225;SDS011;22268;52.010;4.716;2022-09-09T02:06:33;15.48;;;10.05;;
36225;SDS011;22268;52.010;4.716;2022-09-09T02:09:00;13.02;;;10.40;;
36225;SDS011;22268;52.010;4.716;2022-09-09T02:11:27;15.55;;;10.48;;
36225;SDS011;22268;52.010;4.716;2022-09-09T02:13:57;14.98;;;10.75;;
36225;SDS011;22268;52.010;4.716;2022-09-09T02:16:33;17.23;;;11.57;;
36225;SDS011;22268;52.010;4.716;2022-09-09T02:19:16;13.38;;;10.27;;
36225;SDS011;22268;52.010;4.716;2022-09-09T02:21:52;18.35;;;12.32;;
36225;SDS011;22268;52.010;4.716;2022-09-09T02:24:18;17.52;;;11.40;;
36225;SDS011;22268;52.010;4.716;2022-09-09T02:26:44;20.98;;;12.55;;
36225;SDS011;22268;52.010;4.716;2022-09-09T02:29:13;16.90;;;11.85;;
36225;SDS011;22268;52.010;4.716;2022-09-09T02:31:39;20.45;;;11.77;;
36225;SDS011;22268;52.010;4.716;2022-09-09T02:34:06;20.67;;;12.05;;
36225;SDS011;22268;52.010;4.716;2022-09-09T02:36:35;19.12;;;12.32;;
36225;SDS011;22268;52.010;4.716;2022-09-09T02:39:01;19.33;;;13.48;;
36225;SDS011;22268;52.010;4.716;2022-09-09T02:41:31;18.48;;;12.75;;
36225;SDS011;22268;52.010;4.716;2022-09-09T02:43:57;18.75;;;12.30;;
36225;SDS011;22268;52.010;4.716;2022-09-09T02:49:06;19.17;;;13.07;;
36225;SDS011;22268;52.010;4.716;2022-09-09T02:54:15;20.92;;;14.35;;
36225;SDS011;22268;52.010;4.716;2022-09-09T02:56:43;20.55;;;13.77;;
36225;SDS011;22268;52.010;4.716;2022-09-09T02:59:10;24.17;;;14.15;;
36225;SDS011;22268;52.010;4.716;2022-09-09T03:01:36;20.92;;;13.23;;
36225;SDS011;22268;52.010;4.716;2022-09-09T03:04:02;20.33;;;13.27;;
36225;SDS011;22268;52.010;4.716;2022-09-09T03:06:30;20.73;;;14.87;;
36225;SDS011;22268;52.010;4.716;2022-09-09T03:08:55;21.58;;;14.77;;
36225;SDS011;22268;52.010;4.716;2022-09-09T03:11:21;25.08;;;13.23;;
36225;SDS011;22268;52.010;4.716;2022-09-09T03:13:46;18.27;;;12.48;;
36225;SDS011;22268;52.010;4.716;2022-09-09T03:16:12;22.60;;;13.85;;
36225;SDS011;22268;52.010;4.716;2022-09-09T03:18:37;21.95;;;14.43;;
36225;SDS011;22268;52.010;4.716;2022-09-09T03:21:02;22.98;;;14.68;;
36225;SDS011;22268;52.010;4.716;2022-09-09T03:23:27;19.83;;;13.80;;
36225;SDS011;22268;52.010;4.716;2022-09-09T03:25:53;19.58;;;13.65;;
36225;SDS011;22268;52.010;4.716;2022-09-09T03:28:21;22.10;;;14.05;;
36225;SDS011;22268;52.010;4.716;2022-09-09T03:30:48;21.65;;;13.62;;
36225;SDS011;22268;52.010;4.716;2022-09-09T03:33:14;19.10;;;13.70;;
36225;SDS011;22268;52.010;4.716;2022-09-09T03:35:44;22.83;;;14.70;;
36225;SDS011;22268;52.010;4.716;2022-09-09T03:38:11;17.83;;;13.57;;
36225;SDS011;22268;52.010;4.716;2022-09-09T03:40:37;19.30;;;12.52;;
36225;SDS011;22268;52.010;4.716;2022-09-09T03:43:02;18.73;;;13.40;;
36225;SDS011;22268;52.010;4.716;2022-09-09T03:45:27;18.70;;;13.32;;
36225;SDS011;22268;52.010;4.716;2022-09-09T03:47:53;22.05;;;12.15;;
36225;SDS011;22268;52.010;4.716;2022-09-09T03:50:19;22.10;;;11.80;;
36225;SDS011;22268;52.010;4.716;2022-09-09T03:52:44;16.35;;;10.25;;
36225;SDS011;22268;52.010;4.716;2022-09-09T03:55:09;16.58;;;11.98;;
36225;SDS011;22268;52.010;4.716;2022-09-09T03:57:34;19.55;;;10.73;;
36225;SDS011;22268;52.010;4.716;2022-09-09T04:00:04;15.10;;;9.82;;
36225;SDS011;22268;52.010;4.716;2022-09-09T04:02:30;20.12;;;10.82;;
36225;SDS011;22268;52.010;4.716;2022-09-09T04:04:55;19.75;;;9.32;;
36225;SDS011;22268;52.010;4.716;2022-09-09T04:07:21;17.02;;;10.00;;
36225;SDS011;22268;52.010;4.716;2022-09-09T04:09:46;15.80;;;9.27;;
36225;SDS011;22268;52.010;4.716;2022-09-09T04:12:11;15.60;;;9.73;;
36225;SDS011;22268;52.010;4.716;2022-09-09T04:14:38;13.77;;;7.87;;
36225;SDS011;22268;52.010;4.716;2022-09-09T04:17:03;10.88;;;8.32;;
36225;SDS011;22268;52.010;4.716;2022-09-09T04:19:31;13.40;;;8.30;;
36225;SDS011;22268;52.010;4.716;2022-09-09T04:21:56;16.77;;;7.15;;
36225;SDS011;22268;52.010;4.716;2022-09-09T04:24:21;9.90;;;7.05;;
36225;SDS011;22268;52.010;4.716;2022-09-09T04:26:47;10.30;;;6.82;;
36225;SDS011;22268;52.010;4.716;2022-09-09T04:29:12;11.57;;;6.25;;
36225;SDS011;22268;52.010;4.716;2022-09-09T04:31:37;18.42;;;7.25;;
36225;SDS011;22268;52.010;4.716;2022-09-09T04:34:06;14.02;;;6.18;;
36225;SDS011;22268;52.010;4.716;2022-09-09T04:36:32;11.15;;;5.68;;
36225;SDS011;22268;52.010;4.716;2022-09-09T04:38:58;10.07;;;5.68;;
36225;SDS011;22268;52.010;4.716;2022-09-09T04:41:23;9.60;;;5.55;;
36225;SDS011;22268;52.010;4.716;2022-09-09T04:43:48;10.35;;;5.18;;
36225;SDS011;22268;52.010;4.716;2022-09-09T04:46:13;8.75;;;5.40;;
36225;SDS011;22268;52.010;4.716;2022-09-09T04:48:42;14.23;;;6.55;;
36225;SDS011;22268;52.010;4.716;2022-09-09T04:51:08;14.48;;;6.60;;
36225;SDS011;22268;52.010;4.716;2022-09-09T04:53:35;10.05;;;5.97;;
36225;SDS011;22268;52.010;4.716;2022-09-09T04:56:22;13.90;;;6.53;;
36225;SDS011;22268;52.010;4.716;2022-09-09T04:58:46;10.48;;;6.53;;
36225;SDS011;22268;52.010;4.716;2022-09-09T05:01:15;12.75;;;6.35;;
36225;SDS011;22268;52.010;4.716;2022-09-09T05:03:42;11.73;;;5.85;;
36225;SDS011;22268;52.010;4.716;2022-09-09T05:06:09;15.68;;;6.85;;
36225;SDS011;22268;52.010;4.716;2022-09-09T05:08:35;19.50;;;6.55;;
36225;SDS011;22268;52.010;4.716;2022-09-09T05:11:01;13.65;;;5.60;;
36225;SDS011;22268;52.010;4.716;2022-09-09T05:13:26;17.90;;;5.80;;
36225;SDS011;22268;52.010;4.716;2022-09-09T05:15:52;13.90;;;5.80;;
36225;SDS011;22268;52.010;4.716;2022-09-09T05:18:18;13.40;;;6.43;;
36225;SDS011;22268;52.010;4.716;2022-09-09T05:20:43;7.82;;;5.40;;
36225;SDS011;22268;52.010;4.716;2022-09-09T05:23:08;11.38;;;5.62;;
36225;SDS011;22268;52.010;4.716;2022-09-09T05:25:36;15.02;;;6.18;;
36225;SDS011;22268;52.010;4.716;2022-09-09T05:28:01;13.57;;;6.00;;
36225;SDS011;22268;52.010;4.716;2022-09-09T05:30:26;12.77;;;5.62;;
36225;SDS011;22268;52.010;4.716;2022-09-09T05:32:52;13.68;;;5.78;;
36225;SDS011;22268;52.010;4.716;2022-09-09T05:35:17;14.07;;;5.75;;
36225;SDS011;22268;52.010;4.716;2022-09-09T05:37:44;16.12;;;5.72;;
36225;SDS011;22268;52.010;4.716;2022-09-09T05:40:10;14.85;;;4.93;;
36225;SDS011;22268;52.010;4.716;2022-09-09T05:42:36;16.95;;;5.40;;
36225;SDS011;22268;52.010;4.716;2022-09-09T05:45:01;15.68;;;5.87;;
36225;SDS011;22268;52.010;4.716;2022-09-09T05:47:26;14.77;;;5.18;;
36225;SDS011;22268;52.010;4.716;2022-09-09T05:49:52;11.57;;;5.05;;
36225;SDS011;22268;52.010;4.716;2022-09-09T05:52:17;9.32;;;4.65;;
36225;SDS011;22268;52.010;4.716;2022-09-09T05:54:43;25.90;;;6.82;;
36225;SDS011;22268;52.010;4.716;2022-09-09T05:57:08;15.15;;;5.40;;
36225;SDS011;22268;52.010;4.716;2022-09-09T05:59:34;16.77;;;5.20;;
36225;SDS011;22268;52.010;4.716;2022-09-09T06:01:59;15.85;;;5.65;;
36225;SDS011;22268;52.010;4.716;2022-09-09T06:04:24;17.40;;;5.78;;
36225;SDS011;22268;52.010;4.716;2022-09-09T06:06:49;15.47;;;5.40;;
36225;SDS011;22268;52.010;4.716;2022-09-09T06:09:15;10.88;;;4.60;;
36225;SDS011;22268;52.010;4.716;2022-09-09T06:11:40;16.33;;;5.15;;
36225;SDS011;22268;52.010;4.716;2022-09-09T06:14:06;14.23;;;5.05;;
36225;SDS011;22268;52.010;4.716;2022-09-09T06:16:32;13.10;;;5.00;;
36225;SDS011;22268;52.010;4.716;2022-09-09T06:18:57;17.67;;;5.45;;
36225;SDS011;22268;52.010;4.716;2022-09-09T06:21:24;16.45;;;7.07;;
36225;SDS011;22268;52.010;4.716;2022-09-09T06:23:49;11.23;;;3.83;;
36225;SDS011;22268;52.010;4.716;2022-09-09T06:26:17;11.73;;;4.93;;
36225;SDS011;22268;52.010;4.716;2022-09-09T06:28:43;14.20;;;4.80;;
36225;SDS011;22268;52.010;4.716;2022-09-09T06:31:09;15.70;;;5.50;;
36225;SDS011;22268;52.010;4.716;2022-09-09T06:33:37;18.98;;;5.12;;
36225;SDS011;22268;52.010;4.716;2022-09-09T06:36:06;21.83;;;4.53;;
36225;SDS011;22268;52.010;4.716;2022-09-09T06:38:31;16.00;;;4.55;;
36225;SDS011;22268;52.010;4.716;2022-09-09T06:40:57;19.90;;;5.05;;
36225;SDS011;22268;52.010;4.716;2022-09-09T06:43:23;13.93;;;4.78;;
36225;SDS011;22268;52.010;4.716;2022-09-09T06:45:55;13.70;;;4.87;;
36225;SDS011;22268;52.010;4.716;2022-09-09T06:48:21;21.87;;;5.78;;
36225;SDS011;22268;52.010;4.716;2022-09-09T06:50:46;11.20;;;5.05;;
36225;SDS011;22268;52.010;4.716;2022-09-09T06:53:11;16.98;;;4.87;;
36225;SDS011;22268;52.010;4.716;2022-09-09T06:55:37;13.85;;;5.80;;
36225;SDS011;22268;52.010;4.716;2022-09-09T06:58:02;17.83;;;5.70;;
36225;SDS011;22268;52.010;4.716;2022-09-09T07:00:32;12.18;;;4.87;;
36225;SDS011;22268;52.010;4.716;2022-09-09T07:02:57;13.45;;;5.78;;
36225;SDS011;22268;52.010;4.716;2022-09-09T07:05:22;19.15;;;6.53;;
36225;SDS011;22268;52.010;4.716;2022-09-09T07:07:48;16.42;;;5.15;;
36225;SDS011;22268;52.010;4.716;2022-09-09T07:10:13;19.00;;;5.70;;
36225;SDS011;22268;52.010;4.716;2022-09-09T07:12:38;11.68;;;4.97;;
36225;SDS011;22268;52.010;4.716;2022-09-09T07:15:03;13.53;;;5.30;;
36225;SDS011;22268;52.010;4.716;2022-09-09T07:17:29;22.08;;;6.35;;
36225;SDS011;22268;52.010;4.716;2022-09-09T07:19:54;15.93;;;6.00;;
36225;SDS011;22268;52.010;4.716;2022-09-09T07:22:19;11.73;;;5.65;;
36225;SDS011;22268;52.010;4.716;2022-09-09T07:24:45;13.52;;;5.95;;
36225;SDS011;22268;52.010;4.716;2022-09-09T07:27:10;18.98;;;7.22;;
36225;SDS011;22268;52.010;4.716;2022-09-09T07:29:35;18.73;;;6.50;;
36225;SDS011;22268;52.010;4.716;2022-09-09T07:32:00;13.25;;;5.43;;
36225;SDS011;22268;52.010;4.716;2022-09-09T07:34:27;16.67;;;5.95;;
36225;SDS011;22268;52.010;4.716;2022-09-09T07:36:52;12.75;;;5.32;;
36225;SDS011;22268;52.010;4.716;2022-09-09T07:39:18;17.85;;;6.32;;
36225;SDS011;22268;52.010;4.716;2022-09-09T07:41:44;17.60;;;6.72;;
36225;SDS011;22268;52.010;4.716;2022-09-09T07:44:11;11.85;;;6.22;;
36225;SDS011;22268;52.010;4.716;2022-09-09T07:46:37;14.57;;;7.28;;
36225;SDS011;22268;52.010;4.716;2022-09-09T07:49:04;12.35;;;6.47;;
36225;SDS011;22268;52.010;4.716;2022-09-09T07:51:31;11.30;;;5.93;;
36225;SDS011;22268;52.010;4.716;2022-09-09T07:53:58;15.68;;;5.75;;
36225;SDS011;22268;52.010;4.716;2022-09-09T07:56:23;13.30;;;6.20;;
36225;SDS011;22268;52.010;4.716;2022-09-09T07:58:50;11.45;;;5.90;;
36225;SDS011;22268;52.010;4.716;2022-09-09T08:01:22;12.55;;;6.18;;
36225;SDS011;22268;52.010;4.716;2022-09-09T08:03:53;12.73;;;7.65;;
36225;SDS011;22268;52.010;4.716;2022-09-09T08:06:19;20.52;;;6.37;;
36225;SDS011;22268;52.010;4.716;2022-09-09T08:08:44;12.25;;;5.40;;
36225;SDS011;22268;52.010;4.716;2022-09-09T08:11:13;14.25;;;5.95;;
36225;SDS011;22268;52.010;4.716;2022-09-09T08:13:40;18.48;;;6.25;;
36225;SDS011;22268;52.010;4.716;2022-09-09T08:16:21;18.33;;;7.30;;
36225;SDS011;22268;52.010;4.716;2022-09-09T08:18:47;11.20;;;5.70;;
36225;SDS011;22268;52.010;4.716;2022-09-09T08:21:17;12.37;;;5.75;;
36225;SDS011;22268;52.010;4.716;2022-09-09T08:23:43;17.73;;;5.68;;
36225;SDS011;22268;52.010;4.716;2022-09-09T08:26:13;13.85;;;6.18;;
36225;SDS011;22268;52.010;4.716;2022-09-09T08:28:40;15.45;;;6.37;;
36225;SDS011;22268;52.010;4.716;2022-09-09T08:31:13;12.48;;;5.78;;
36225;SDS011;22268;52.010;4.716;2022-09-09T08:33:38;16.87;;;5.70;;
36225;SDS011;22268;52.010;4.716;2022-09-09T08:36:04;17.73;;;6.12;;
36225;SDS011;22268;52.010;4.716;2022-09-09T08:38:30;12.13;;;4.72;;
36225;SDS011;22268;52.010;4.716;2022-09-09T08:40:57;16.83;;;5.97;;
36225;SDS011;22268;52.010;4.716;2022-09-09T08:43:26;16.95;;;5.22;;
36225;SDS011;22268;52.010;4.716;2022-09-09T08:45:58;16.45;;;4.82;;
36225;SDS011;22268;52.010;4.716;2022-09-09T08:48:42;16.25;;;5.95;;
36225;SDS011;22268;52.010;4.716;2022-09-09T08:51:09;29.85;;;6.60;;
36225;SDS011;22268;52.010;4.716;2022-09-09T08:53:38;23.02;;;6.05;;
36225;SDS011;22268;52.010;4.716;2022-09-09T08:56:08;15.32;;;5.37;;
36225;SDS011;22268;52.010;4.716;2022-09-09T08:58:35;19.30;;;5.35;;
36225;SDS011;22268;52.010;4.716;2022-09-09T09:01:19;13.82;;;4.60;;
36225;SDS011;22268;52.010;4.716;2022-09-09T09:11:38;18.87;;;6.55;;
36225;SDS011;22268;52.010;4.716;2022-09-09T09:14:12;17.98;;;6.45;;
36225;SDS011;22268;52.010;4.716;2022-09-09T09:16:53;11.50;;;5.28;;
36225;SDS011;22268;52.010;4.716;2022-09-09T09:19:19;13.57;;;5.28;;
36225;SDS011;22268;52.010;4.716;2022-09-09T09:24:20;21.27;;;6.03;;
36225;SDS011;22268;52.010;4.716;2022-09-09T09:26:45;13.73;;;5.37;;
36225;SDS011;22268;52.010;4.716;2022-09-09T09:29:15;12.82;;;4.80;;
36225;SDS011;22268;52.010;4.716;2022-09-09T09:31:51;15.23;;;5.62;;
36225;SDS011;22268;52.010;4.716;2022-09-09T09:34:17;19.58;;;5.85;;
36225;SDS011;22268;52.010;4.716;2022-09-09T09:36:44;17.58;;;5.57;;
36225;SDS011;22268;52.010;4.716;2022-09-09T09:39:22;25.17;;;6.43;;
36225;SDS011;22268;52.010;4.716;2022-09-09T09:41:47;18.83;;;6.57;;
36225;SDS011;22268;52.010;4.716;2022-09-09T09:44:21;13.70;;;5.75;;
36225;SDS011;22268;52.010;4.716;2022-09-09T09:46:47;14.98;;;5.90;;
36225;SDS011;22268;52.010;4.716;2022-09-09T09:49:12;22.97;;;7.60;;
36225;SDS011;22268;52.010;4.716;2022-09-09T09:51:38;21.90;;;6.75;;
36225;SDS011;22268;52.010;4.716;2022-09-09T09:54:08;18.35;;;6.72;;
36225;SDS011;22268;52.010;4.716;2022-09-09T09:56:34;17.60;;;6.78;;
36225;SDS011;22268;52.010;4.716;2022-09-09T09:59:00;18.67;;;7.03;;
36225;SDS011;22268;52.010;4.716;2022-09-09T10:01:29;14.75;;;5.32;;
36225;SDS011;22268;52.010;4.716;2022-09-09T10:04:12;26.70;;;5.35;;
36225;SDS011;22268;52.010;4.716;2022-09-09T10:06:38;18.20;;;4.40;;
36225;SDS011;22268;52.010;4.716;2022-09-09T10:09:27;15.25;;;4.18;;
36225;SDS011;22268;52.010;4.716;2022-09-09T10:19:37;11.50;;;4.03;;
36225;SDS011;22268;52.010;4.716;2022-09-09T10:30:00;10.63;;;3.60;;
36225;SDS011;22268;52.010;4.716;2022-09-09T10:35:02;10.90;;;4.15;;
36225;SDS011;22268;52.010;4.716;2022-09-09T10:39:59;9.73;;;4.43;;
36225;SDS011;22268;52.010;4.716;2022-09-09T10:42:27;12.60;;;3.80;;
36225;SDS011;22268;52.010;4.716;2022-09-09T10:47:43;9.88;;;3.92;;
36225;SDS011;22268;52.010;4.716;2022-09-09T10:50:56;10.80;;;3.92;;
36225;SDS011;22268;52.010;4.716;2022-09-09T10:55:50;13.00;;;4.45;;
36225;SDS011;22268;52.010;4.716;2022-09-09T10:58:28;9.18;;;5.20;;
36225;SDS011;22268;52.010;4.716;2022-09-09T11:00:56;9.90;;;4.22;;
36225;SDS011;22268;52.010;4.716;2022-09-09T11:03:27;10.43;;;3.83;;
36225;SDS011;22268;52.010;4.716;2022-09-09T11:05:56;10.27;;;3.83;;
36225;SDS011;22268;52.010;4.716;2022-09-09T11:08:23;5.82;;;2.87;;
36225;SDS011;22268;52.010;4.716;2022-09-09T11:11:02;14.02;;;4.07;;
36225;SDS011;22268;52.010;4.716;2022-09-09T11:13:40;6.90;;;2.85;;
36225;SDS011;22268;52.010;4.716;2022-09-09T11:16:20;14.15;;;3.10;;
36225;SDS011;22268;52.010;4.716;2022-09-09T11:18:48;8.07;;;4.12;;
36225;SDS011;22268;52.010;4.716;2022-09-09T11:21:17;7.20;;;2.85;;
36225;SDS011;22268;52.010;4.716;2022-09-09T11:23:45;9.43;;;3.40;;
36225;SDS011;22268;52.010;4.716;2022-09-09T11:26:16;7.30;;;2.80;;
36225;SDS011;22268;52.010;4.716;2022-09-09T11:31:16;8.68;;;2.90;;
36225;SDS011;22268;52.010;4.716;2022-09-09T11:33:52;5.78;;;3.08;;
36225;SDS011;22268;52.010;4.716;2022-09-09T11:38:48;9.07;;;3.50;;
36225;SDS011;22268;52.010;4.716;2022-09-09T11:41:16;6.18;;;3.75;;
36225;SDS011;22268;52.010;4.716;2022-09-09T11:43:45;10.77;;;4.32;;
36225;SDS011;22268;52.010;4.716;2022-09-09T11:46:12;11.18;;;4.18;;
36225;SDS011;22268;52.010;4.716;2022-09-09T11:48:42;11.98;;;4.20;;
36225;SDS011;22268;52.010;4.716;2022-09-09T11:51:12;9.90;;;3.80;;
36225;SDS011;22268;52.010;4.716;2022-09-09T11:53:57;10.13;;;4.95;;
36225;SDS011;22268;52.010;4.716;2022-09-09T11:59:02;12.75;;;6.05;;
36225;SDS011;22268;52.010;4.716;2022-09-09T12:01:34;9.98;;;6.15;;
36225;SDS011;22268;52.010;4.716;2022-09-09T12:06:30;13.77;;;8.30;;
36225;SDS011;22268;52.010;4.716;2022-09-09T12:09:33;14.30;;;7.90;;
36225;SDS011;22268;52.010;4.716;2022-09-09T12:11:50;17.08;;;8.35;;
36225;SDS011;22268;52.010;4.716;2022-09-09T12:14:19;13.77;;;7.55;;
36225;SDS011;22268;52.010;4.716;2022-09-09T12:16:44;12.25;;;8.00;;
36225;SDS011;22268;52.010;4.716;2022-09-09T12:19:19;12.02;;;6.65;;
36225;SDS011;22268;52.010;4.716;2022-09-09T12:24:13;12.80;;;6.25;;
36225;SDS011;22268;52.010;4.716;2022-09-09T12:26:43;12.25;;;6.55;;
36225;SDS011;22268;52.010;4.716;2022-09-09T12:32:06;25.92;;;11.32;;
36225;SDS011;22268;52.010;4.716;2022-09-09T12:37:22;17.80;;;9.93;;
36225;SDS011;22268;52.010;4.716;2022-09-09T12:39:57;17.27;;;8.65;;
36225;SDS011;22268;52.010;4.716;2022-09-09T12:42:23;14.60;;;9.63;;
36225;SDS011;22268;52.010;4.716;2022-09-09T12:44:58;15.07;;;7.90;;
36225;SDS011;22268;52.010;4.716;2022-09-09T12:47:37;10.85;;;6.68;;
36225;SDS011;22268;52.010;4.716;2022-09-09T12:50:03;12.05;;;5.43;;
36225;SDS011;22268;52.010;4.716;2022-09-09T12:52:30;10.18;;;4.97;;
36225;SDS011;22268;52.010;4.716;2022-09-09T12:54:57;11.60;;;5.18;;
36225;SDS011;22268;52.010;4.716;2022-09-09T12:57:23;10.98;;;6.22;;
36225;SDS011;22268;52.010;4.716;2022-09-09T12:59:50;14.10;;;6.57;;
36225;SDS011;22268;52.010;4.716;2022-09-09T13:02:20;12.40;;;6.40;;
36225;SDS011;22268;52.010;4.716;2022-09-09T13:04:45;12.20;;;5.80;;
36225;SDS011;22268;52.010;4.716;2022-09-09T13:07:12;13.62;;;5.60;;
36225;SDS011;22268;52.010;4.716;2022-09-09T13:09:38;9.40;;;5.70;;
36225;SDS011;22268;52.010;4.716;2022-09-09T13:12:03;13.07;;;6.18;;
36225;SDS011;22268;52.010;4.716;2022-09-09T13:14:32;11.00;;;5.50;;
36225;SDS011;22268;52.010;4.716;2022-09-09T13:17:00;20.15;;;5.97;;
36225;SDS011;22268;52.010;4.716;2022-09-09T13:19:25;15.30;;;6.22;;
36225;SDS011;22268;52.010;4.716;2022-09-09T13:21:53;11.32;;;5.82;;
36225;SDS011;22268;52.010;4.716;2022-09-09T13:24:32;11.85;;;6.12;;
36225;SDS011;22268;52.010;4.716;2022-09-09T13:27:02;19.05;;;7.35;;
36225;SDS011;22268;52.010;4.716;2022-09-09T13:29:28;16.12;;;8.13;;
36225;SDS011;22268;52.010;4.716;2022-09-09T13:31:53;13.18;;;7.22;;
36225;SDS011;22268;52.010;4.716;2022-09-09T13:34:26;8.32;;;4.85;;
36225;SDS011;22268;52.010;4.716;2022-09-09T13:36:56;10.38;;;4.90;;
36225;SDS011;22268;52.010;4.716;2022-09-09T13:39:23;10.65;;;4.95;;
36225;SDS011;22268;52.010;4.716;2022-09-09T13:41:49;11.38;;;5.32;;
36225;SDS011;22268;52.010;4.716;2022-09-09T13:44:17;12.63;;;5.43;;
36225;SDS011;22268;52.010;4.716;2022-09-09T13:46:43;11.12;;;4.57;;
36225;SDS011;22268;52.010;4.716;2022-09-09T13:54:01;10.70;;;4.70;;
36225;SDS011;22268;52.010;4.716;2022-09-09T13:56:27;9.18;;;3.83;;
36225;SDS011;22268;52.010;4.716;2022-09-09T13:58:52;7.68;;;3.53;;
36225;SDS011;22268;52.010;4.716;2022-09-09T14:01:17;8.10;;;3.53;;
36225;SDS011;22268;52.010;4.716;2022-09-09T14:03:42;6.22;;;2.47;;
36225;SDS011;22268;52.010;4.716;2022-09-09T14:06:08;4.95;;;2.92;;
36225;SDS011;22268;52.010;4.716;2022-09-09T14:08:34;7.18;;;2.30;;
36225;SDS011;22268;52.010;4.716;2022-09-09T14:11:02;6.75;;;2.47;;
36225;SDS011;22268;52.010;4.716;2022-09-09T14:13:27;5.25;;;2.15;;
36225;SDS011;22268;52.010;4.716;2022-09-09T14:15:52;10.40;;;3.10;;
36225;SDS011;22268;52.010;4.716;2022-09-09T14:18:18;11.75;;;3.30;;
36225;SDS011;22268;52.010;4.716;2022-09-09T14:20:44;14.27;;;4.57;;
36225;SDS011;22268;52.010;4.716;2022-09-09T14:23:10;8.93;;;3.83;;
36225;SDS011;22268;52.010;4.716;2022-09-09T14:25:35;11.55;;;5.43;;
36225;SDS011;22268;52.010;4.716;2022-09-09T14:28:01;15.45;;;5.03;;
36225;SDS011;22268;52.010;4.716;2022-09-09T14:30:26;12.95;;;6.15;;
36225;SDS011;22268;52.010;4.716;2022-09-09T14:32:52;11.63;;;6.30;;
36225;SDS011;22268;52.010;4.716;2022-09-09T14:35:17;16.87;;;5.65;;
36225;SDS011;22268;52.010;4.716;2022-09-09T14:37:43;10.27;;;5.22;;
36225;SDS011;22268;52.010;4.716;2022-09-09T14:40:09;11.75;;;5.53;;
36225;SDS011;22268;52.010;4.716;2022-09-09T14:42:36;10.60;;;6.37;;
36225;SDS011;22268;52.010;4.716;2022-09-09T14:45:01;12.00;;;4.97;;
36225;SDS011;22268;52.010;4.716;2022-09-09T14:47:26;7.68;;;4.93;;
36225;SDS011;22268;52.010;4.716;2022-09-09T14:49:52;10.85;;;5.53;;
36225;SDS011;22268;52.010;4.716;2022-09-09T14:52:18;16.00;;;6.35;;
36225;SDS011;22268;52.010;4.716;2022-09-09T14:54:43;9.45;;;4.22;;
36225;SDS011;22268;52.010;4.716;2022-09-09T14:57:08;10.97;;;5.13;;
36225;SDS011;22268;52.010;4.716;2022-09-09T14:59:33;12.00;;;5.20;;
36225;SDS011;22268;52.010;4.716;2022-09-09T15:01:59;14.73;;;5.82;;
36225;SDS011;22268;52.010;4.716;2022-09-09T15:04:28;16.77;;;6.45;;
36225;SDS011;22268;52.010;4.716;2022-09-09T15:06:54;11.70;;;4.22;;
36225;SDS011;22268;52.010;4.716;2022-09-09T15:09:19;10.07;;;3.47;;
36225;SDS011;22268;52.010;4.716;2022-09-09T15:11:44;10.20;;;4.45;;
36225;SDS011;22268;52.010;4.716;2022-09-09T15:14:10;6.93;;;4.00;;
36225;SDS011;22268;52.010;4.716;2022-09-09T15:16:37;11.32;;;4.45;;
36225;SDS011;22268;52.010;4.716;2022-09-09T15:19:03;8.45;;;4.37;;
36225;SDS011;22268;52.010;4.716;2022-09-09T15:21:29;10.82;;;4.28;;
36225;SDS011;22268;52.010;4.716;2022-09-09T15:23:55;9.32;;;3.97;;
36225;SDS011;22268;52.010;4.716;2022-09-09T15:26:21;10.30;;;3.25;;
36225;SDS011;22268;52.010;4.716;2022-09-09T15:28:46;13.75;;;3.75;;
36225;SDS011;22268;52.010;4.716;2022-09-09T15:33:39;9.20;;;2.87;;
36225;SDS011;22268;52.010;4.716;2022-09-09T15:36:15;9.77;;;3.62;;
36225;SDS011;22268;52.010;4.716;2022-09-09T15:38:40;7.95;;;2.90;;
36225;SDS011;22268;52.010;4.716;2022-09-09T15:41:05;6.40;;;3.15;;
36225;SDS011;22268;52.010;4.716;2022-09-09T15:43:31;8.55;;;3.15;;
36225;SDS011;22268;52.010;4.716;2022-09-09T15:45:57;9.98;;;3.50;;
36225;SDS011;22268;52.010;4.716;2022-09-09T15:48:29;12.80;;;3.62;;
36225;SDS011;22268;52.010;4.716;2022-09-09T15:51:04;10.95;;;4.37;;
36225;SDS011;22268;52.010;4.716;2022-09-09T15:53:30;15.82;;;4.72;;
36225;SDS011;22268;52.010;4.716;2022-09-09T15:55:57;9.82;;;4.82;;
36225;SDS011;22268;52.010;4.716;2022-09-09T15:58:22;12.43;;;4.82;;
36225;SDS011;22268;52.010;4.716;2022-09-09T16:00:47;12.18;;;6.12;;
36225;SDS011;22268;52.010;4.716;2022-09-09T16:03:13;13.00;;;6.57;;
36225;SDS011;22268;52.010;4.716;2022-09-09T16:05:38;14.60;;;6.18;;
36225;SDS011;22268;52.010;4.716;2022-09-09T16:08:03;21.50;;;8.00;;